createdAt,value
2023-02-09T00:02:02.431Z,1.00
2023-02-09T00:04:34.462Z,1.10
2023-02-09T00:07:05.136Z,3.40
2023-02-09T00:09:35.813Z,0.90
2023-02-09T00:12:27.505Z,1.00
2023-02-09T00:14:58.087Z,0.80
2023-02-09T00:17:28.363Z,0.20
2023-02-09T00:19:58.490Z,0.40
2023-02-09T00:22:28.765Z,1.00
2023-02-09T00:24:58.942Z,1.20
2023-02-09T00:27:29.470Z,2.50
2023-02-09T00:29:59.782Z,3.50
2023-02-09T00:32:31.690Z,0.40
2023-02-09T00:35:02.206Z,2.10
2023-02-09T00:37:32.948Z,0.50
2023-02-09T00:40:03.218Z,0.80
2023-02-09T00:42:33.908Z,1.20
2023-02-09T00:45:04.362Z,0.80
2023-02-09T00:47:35.231Z,1.40
2023-02-09T00:50:08.284Z,8.10
2023-02-09T00:52:38.632Z,0.60
2023-02-09T00:55:09.701Z,1.80
2023-02-09T00:57:40.148Z,1.10
2023-02-09T01:00:14.564Z,1.20
2023-02-09T01:02:46.491Z,0.90
2023-02-09T01:05:17.299Z,0.50
2023-02-09T01:07:47.872Z,2.80
2023-02-09T01:10:18.415Z,1.10
2023-02-09T01:12:48.545Z,0.50
2023-02-09T01:15:19.912Z,2.20
2023-02-09T01:17:53.630Z,1.80
2023-02-09T01:20:26.408Z,0.30
2023-02-09T01:22:56.688Z,1.40
2023-02-09T01:25:26.961Z,0.40
2023-02-09T01:27:57.657Z,1.00
2023-02-09T01:30:29.150Z,1.10
2023-02-09T01:33:03.393Z,2.50
2023-02-09T01:35:35.337Z,0.60
2023-02-09T01:38:05.901Z,1.10
2023-02-09T01:40:36.151Z,1.40
2023-02-09T01:43:06.835Z,4.80
2023-02-09T01:45:39.019Z,1.10
2023-02-09T01:48:09.545Z,1.80
2023-02-09T01:50:45.917Z,1.40
2023-02-09T01:53:17.560Z,1.40
2023-02-09T01:55:51.017Z,3.80
2023-02-09T01:58:22.793Z,3.40
2023-02-09T02:00:53.789Z,0.90
2023-02-09T02:03:26.742Z,3.60
2023-02-09T02:06:03.105Z,0.80
2023-02-09T02:08:36.270Z,1.20
2023-02-09T02:11:06.962Z,0.90
2023-02-09T02:13:37.960Z,1.30
2023-02-09T02:16:22.951Z,0.70
2023-02-09T02:19:02.647Z,1.60
2023-02-09T02:22:09.363Z,0.30
2023-02-09T02:25:15.909Z,2.00
2023-02-09T02:27:49.359Z,0.60
2023-02-09T02:30:46.454Z,0.50
2023-02-09T02:33:25.273Z,2.80
2023-02-09T02:35:59.019Z,2.40
2023-02-09T02:38:36.268Z,2.40
2023-02-09T02:41:13.892Z,2.80
2023-02-09T02:43:53.518Z,1.90
2023-02-09T02:46:30.076Z,1.10
2023-02-09T02:49:05.913Z,0.90
2023-02-09T02:51:38.847Z,1.80
2023-02-09T02:54:11.013Z,1.70
2023-02-09T02:56:44.509Z,1.40
2023-02-09T02:59:19.355Z,1.20
2023-02-09T03:01:54.457Z,1.90
2023-02-09T03:04:25.796Z,2.90
2023-02-09T03:06:56.417Z,1.30
2023-02-09T03:09:26.700Z,1.20
2023-02-09T03:12:02.170Z,2.40
2023-02-09T03:14:44.193Z,2.60
2023-02-09T03:17:27.648Z,3.20
2023-02-09T03:20:03.010Z,1.30
2023-02-09T03:22:37.839Z,0.90
2023-02-09T03:25:13.011Z,1.30
2023-02-09T03:27:45.656Z,2.90
2023-02-09T03:30:18.017Z,1.90
2023-02-09T03:32:48.949Z,2.00
2023-02-09T03:35:21.919Z,2.60
2023-02-09T03:37:53.705Z,2.10
2023-02-09T03:40:24.134Z,0.60
2023-02-09T03:42:54.877Z,1.20
2023-02-09T03:45:25.732Z,2.50
2023-02-09T03:47:55.816Z,1.10
2023-02-09T03:50:25.971Z,1.30
2023-02-09T03:52:56.180Z,2.70
2023-02-09T03:55:27.108Z,6.10
2023-02-09T03:57:58.175Z,4.60
2023-02-09T04:00:30.177Z,7.50
2023-02-09T04:03:07.048Z,4.90
2023-02-09T04:05:37.281Z,4.60
2023-02-09T04:08:08.587Z,2.60
2023-02-09T04:10:41.514Z,1.10
2023-02-09T04:13:12.005Z,7.80
2023-02-09T04:15:43.289Z,2.70
2023-02-09T04:18:15.069Z,3.60
2023-02-09T04:20:46.229Z,3.30
2023-02-09T04:23:17.570Z,2.20
2023-02-09T04:25:49.293Z,6.80
2023-02-09T04:28:20.445Z,4.80
2023-02-09T04:30:55.332Z,4.30
2023-02-09T04:33:26.775Z,8.40
2023-02-09T04:35:58.248Z,3.80
2023-02-09T04:38:29.011Z,8.70
2023-02-09T04:41:02.749Z,5.80
2023-02-09T04:43:33.368Z,4.90
2023-02-09T04:46:03.937Z,2.70
2023-02-09T04:48:35.021Z,2.20
2023-02-09T04:51:05.555Z,5.20
2023-02-09T04:53:35.856Z,2.20
2023-02-09T04:56:07.209Z,4.50
2023-02-09T04:58:55.242Z,3.40
2023-02-09T05:01:26.713Z,13.70
2023-02-09T05:03:57.294Z,3.40
2023-02-09T05:06:27.671Z,2.90
2023-02-09T05:08:58.344Z,2.60
2023-02-09T05:11:29.189Z,5.10
2023-02-09T05:13:59.893Z,3.30
2023-02-09T05:16:30.462Z,5.00
2023-02-09T05:19:00.824Z,2.00
2023-02-09T05:21:30.917Z,4.00
2023-02-09T05:24:01.899Z,5.70
2023-02-09T05:26:32.483Z,5.80
2023-02-09T05:29:03.023Z,4.60
2023-02-09T05:31:33.339Z,3.00
2023-02-09T05:34:04.110Z,4.30
2023-02-09T05:36:36.512Z,3.70
2023-02-09T05:39:10.264Z,3.70
2023-02-09T05:41:58.027Z,4.70
2023-02-09T05:44:28.736Z,4.50
2023-02-09T05:46:58.946Z,8.50
2023-02-09T05:49:30.189Z,5.60
2023-02-09T05:52:07.635Z,4.70
2023-02-09T05:54:38.216Z,2.60
2023-02-09T05:57:08.839Z,2.60
2023-02-09T05:59:39.094Z,3.00
2023-02-09T06:02:09.168Z,4.00
2023-02-09T06:04:39.504Z,4.60
2023-02-09T06:07:11.866Z,4.90
2023-02-09T06:09:42.129Z,3.20
2023-02-09T06:12:12.661Z,7.70
2023-02-09T06:14:42.909Z,6.50
2023-02-09T06:17:13.590Z,6.10
2023-02-09T06:19:43.698Z,6.00
2023-02-09T06:22:16.818Z,5.90
2023-02-09T06:24:47.438Z,11.50
2023-02-09T06:27:20.460Z,6.20
2023-02-09T06:29:50.909Z,4.50
2023-02-09T06:32:23.836Z,3.50
2023-02-09T06:34:59.265Z,3.60
2023-02-09T06:37:33.286Z,3.70
2023-02-09T06:40:04.115Z,4.90
2023-02-09T06:42:44.241Z,4.20
2023-02-09T06:45:18.517Z,4.10
2023-02-09T06:47:48.978Z,7.50
2023-02-09T06:50:20.196Z,2.80
2023-02-09T06:52:53.909Z,2.90
2023-02-09T06:55:24.315Z,12.90
2023-02-09T06:57:56.390Z,4.90
2023-02-09T07:00:27.057Z,2.10
2023-02-09T07:02:59.088Z,3.20
2023-02-09T07:05:31.202Z,2.50
2023-02-09T07:08:02.054Z,1.10
2023-02-09T07:10:32.522Z,4.80
2023-02-09T07:13:02.695Z,9.60
2023-02-09T07:15:33.094Z,4.40
2023-02-09T07:18:03.471Z,2.50
2023-02-09T07:20:44.363Z,1.40
2023-02-09T07:23:16.253Z,1.10
2023-02-09T07:25:46.467Z,5.20
2023-02-09T07:28:16.863Z,1.20
2023-02-09T07:30:47.823Z,7.70
2023-02-09T07:33:19.216Z,6.10
2023-02-09T07:35:50.650Z,1.30
2023-02-09T07:38:21.480Z,1.70
2023-02-09T07:40:51.909Z,4.40
2023-02-09T07:43:24.142Z,2.30
2023-02-09T07:45:56.921Z,1.50
2023-02-09T07:48:29.044Z,3.20
2023-02-09T07:50:59.494Z,1.70
2023-02-09T07:53:32.265Z,2.50
2023-02-09T07:56:06.328Z,2.00
2023-02-09T07:58:38.533Z,0.50
2023-02-09T08:01:16.691Z,3.80
2023-02-09T08:03:49.398Z,0.80
2023-02-09T08:06:26.012Z,2.70
2023-02-09T08:09:09.423Z,0.70
2023-02-09T08:11:45.398Z,6.50
2023-02-09T08:14:24.230Z,1.10
2023-02-09T08:17:18.051Z,3.60
2023-02-09T08:19:50.217Z,1.20
2023-02-09T08:22:23.689Z,1.60
2023-02-09T08:24:54.529Z,1.70
2023-02-09T08:27:25.667Z,1.70
2023-02-09T08:29:56.479Z,1.90
2023-02-09T08:32:27.189Z,4.70
2023-02-09T08:34:57.414Z,3.40
2023-02-09T08:37:28.186Z,4.20
2023-02-09T08:40:00.024Z,8.60
2023-02-09T08:42:32.217Z,3.50
2023-02-09T08:45:02.412Z,1.70
2023-02-09T08:47:34.440Z,5.70
2023-02-09T08:50:05.376Z,3.10
2023-02-09T08:52:38.030Z,2.10
2023-02-09T08:55:09.767Z,6.60
2023-02-09T08:57:44.841Z,1.60
2023-02-09T09:00:18.600Z,6.90
2023-02-09T09:02:51.362Z,3.00
2023-02-09T09:05:24.491Z,8.20
2023-02-09T09:07:55.278Z,1.50
2023-02-09T09:10:26.443Z,3.20
2023-02-09T09:12:56.857Z,2.60
2023-02-09T09:15:27.279Z,2.20
2023-02-09T09:17:57.786Z,1.70
2023-02-09T09:20:28.341Z,1.70
2023-02-09T09:23:01.846Z,1.50
2023-02-09T09:25:32.656Z,7.30
2023-02-09T09:28:03.449Z,2.10
2023-02-09T09:30:34.061Z,4.80
2023-02-09T09:33:09.891Z,2.20
2023-02-09T09:35:45.142Z,1.70
2023-02-09T09:38:16.904Z,1.80
2023-02-09T09:40:48.418Z,4.00
2023-02-09T09:43:30.323Z,2.50
2023-02-09T09:46:04.217Z,2.40
2023-02-09T09:48:44.335Z,14.90
2023-02-09T09:51:19.492Z,4.80
2023-02-09T09:53:52.079Z,3.00
2023-02-09T09:56:26.135Z,6.40
2023-02-09T09:58:58.938Z,4.20
2023-02-09T10:01:32.368Z,1.90
2023-02-09T10:04:06.709Z,2.80
2023-02-09T10:06:37.320Z,2.20
2023-02-09T10:09:15.047Z,3.20
2023-02-09T10:11:51.713Z,2.00
2023-02-09T10:14:23.697Z,3.30
2023-02-09T10:16:54.551Z,1.00
2023-02-09T10:19:26.622Z,1.60
2023-02-09T10:21:57.000Z,2.50
2023-02-09T10:24:29.680Z,6.90
2023-02-09T10:27:09.024Z,1.70
2023-02-09T10:29:39.330Z,1.30
2023-02-09T10:32:16.693Z,1.10
2023-02-09T10:34:50.274Z,1.80
2023-02-09T10:37:26.436Z,1.60
2023-02-09T10:40:13.379Z,1.80
2023-02-09T10:42:50.485Z,1.00
2023-02-09T10:45:25.311Z,1.40
2023-02-09T10:48:04.343Z,0.50
2023-02-09T10:50:35.836Z,1.40
2023-02-09T10:53:22.842Z,1.50
2023-02-09T10:55:55.834Z,4.90
2023-02-09T10:58:29.650Z,1.60
2023-02-09T11:01:15.436Z,1.80
2023-02-09T11:04:02.427Z,1.60
2023-02-09T11:06:42.901Z,1.60
2023-02-09T11:09:20.128Z,3.60
2023-02-09T11:11:50.406Z,2.00
2023-02-09T11:14:25.430Z,3.40
2023-02-09T11:17:04.012Z,1.30
2023-02-09T11:20:05.862Z,10.20
2023-02-09T11:23:03.650Z,2.50
2023-02-09T11:25:40.798Z,9.10
2023-02-09T11:28:31.603Z,1.60
2023-02-09T11:31:35.608Z,1.10
2023-02-09T11:34:13.121Z,5.80
2023-02-09T11:36:55.241Z,5.60
2023-02-09T11:39:33.091Z,1.20
2023-02-09T11:42:24.730Z,1.60
2023-02-09T11:44:59.461Z,3.10
2023-02-09T11:47:36.341Z,1.90
2023-02-09T11:50:18.685Z,3.40
2023-02-09T11:52:55.047Z,3.60
2023-02-09T11:55:30.676Z,2.10
2023-02-09T11:58:12.694Z,1.40
2023-02-09T12:00:55.985Z,2.10
2023-02-09T12:03:29.560Z,1.70
2023-02-09T12:06:12.235Z,3.50
2023-02-09T12:08:53.111Z,5.40
2023-02-09T12:11:33.593Z,4.00
2023-02-09T12:14:21.853Z,3.00
2023-02-09T12:17:13.159Z,3.90
2023-02-09T12:19:45.830Z,13.30
2023-02-09T12:22:38.667Z,6.50
2023-02-09T12:25:33.456Z,2.50
2023-02-09T12:28:16.549Z,5.90
2023-02-09T12:31:12.016Z,2.60
2023-02-09T12:34:28.312Z,4.70
2023-02-09T12:37:30.580Z,1.90
2023-02-09T12:40:23.593Z,3.40
2023-02-09T12:43:33.521Z,1.30
2023-02-09T12:46:17.120Z,4.20
2023-02-09T12:48:54.235Z,3.30
2023-02-09T12:51:45.835Z,9.70
2023-02-09T12:54:41.232Z,6.50
2023-02-09T12:57:57.379Z,3.50
2023-02-09T13:00:50.898Z,3.10
2023-02-09T13:03:23.317Z,1.20
2023-02-09T13:06:01.621Z,14.60
2023-02-09T13:08:40.728Z,1.70
2023-02-09T13:11:23.329Z,4.70
2023-02-09T13:13:56.379Z,8.60
2023-02-09T13:17:07.350Z,5.90
2023-02-09T13:20:19.857Z,3.90
2023-02-09T13:23:00.545Z,8.20
2023-02-09T13:25:35.078Z,1.40
2023-02-09T13:28:14.412Z,3.00
2023-02-09T13:30:46.928Z,2.90
2023-02-09T13:33:36.177Z,1.80
2023-02-09T13:36:24.782Z,3.70
2023-02-09T13:38:56.286Z,2.20
2023-02-09T13:41:36.367Z,2.30
2023-02-09T13:44:22.522Z,6.90
2023-02-09T13:47:09.859Z,2.70
2023-02-09T13:52:11.767Z,2.20
2023-02-09T13:54:42.934Z,1.70
2023-02-09T13:57:18.785Z,2.40
2023-02-09T13:59:49.841Z,6.20
2023-02-09T14:02:24.612Z,3.00
2023-02-09T14:05:01.459Z,4.20
2023-02-09T14:07:36.997Z,10.50
2023-02-09T14:10:16.700Z,5.30
2023-02-09T14:12:56.293Z,3.90
2023-02-09T14:16:05.496Z,3.20
2023-02-09T14:18:52.891Z,2.20
2023-02-09T14:21:26.080Z,2.70
2023-02-09T14:24:23.711Z,1.80
2023-02-09T14:27:00.517Z,3.00
2023-02-09T14:29:57.537Z,1.60
2023-02-09T14:32:37.093Z,3.60
2023-02-09T14:35:22.608Z,1.80
2023-02-09T14:37:59.229Z,3.80
2023-02-09T14:40:33.794Z,2.50
2023-02-09T14:43:18.137Z,2.90
2023-02-09T14:45:50.585Z,3.00
2023-02-09T14:48:26.095Z,5.80
2023-02-09T14:50:58.584Z,3.30
2023-02-09T14:53:30.732Z,3.10
2023-02-09T14:56:01.149Z,1.30
2023-02-09T14:58:32.550Z,2.40
2023-02-09T15:01:03.588Z,2.60
2023-02-09T15:03:34.294Z,1.50
2023-02-09T15:06:06.876Z,5.20
2023-02-09T15:08:38.868Z,3.80
2023-02-09T15:11:25.767Z,1.80
2023-02-09T15:13:59.447Z,1.80
2023-02-09T15:16:29.639Z,2.30
2023-02-09T15:19:00.850Z,2.60
2023-02-09T15:21:31.382Z,2.40
2023-02-09T15:24:01.949Z,3.30
2023-02-09T15:26:35.314Z,2.90
2023-02-09T15:29:10.801Z,3.90
2023-02-09T15:31:45.717Z,2.30
2023-02-09T15:34:16.185Z,3.90
2023-02-09T15:36:49.318Z,3.30
2023-02-09T15:39:22.918Z,1.90
2023-02-09T15:42:11.314Z,3.30
2023-02-09T15:44:59.726Z,3.70
2023-02-09T15:47:48.256Z,5.80
2023-02-09T15:50:21.945Z,9.90
2023-02-09T15:52:54.277Z,2.80
2023-02-09T15:55:26.052Z,5.20
2023-02-09T15:57:58.897Z,9.10
2023-02-09T16:00:31.340Z,5.60
2023-02-09T16:03:17.649Z,10.10
2023-02-09T16:05:52.132Z,8.00
2023-02-09T16:08:25.285Z,5.50
2023-02-09T16:10:55.607Z,3.90
2023-02-09T16:13:28.804Z,6.70
2023-02-09T16:16:14.857Z,2.40
2023-02-09T16:18:47.697Z,6.10
2023-02-09T16:21:23.146Z,11.10
2023-02-09T16:23:57.846Z,9.20
2023-02-09T16:26:30.389Z,7.80
2023-02-09T16:29:07.503Z,16.30
2023-02-09T16:31:38.085Z,9.70
2023-02-09T16:34:14.938Z,6.40
2023-02-09T16:36:47.677Z,6.50
2023-02-09T16:39:22.504Z,12.70
2023-02-09T16:41:53.433Z,7.30
2023-02-09T16:44:26.973Z,13.40
2023-02-09T16:46:59.437Z,2.90
2023-02-09T16:49:36.192Z,7.80
2023-02-09T16:52:13.540Z,6.40
2023-02-09T16:54:49.044Z,6.80
2023-02-09T16:57:22.764Z,7.60
2023-02-09T16:59:56.383Z,5.30
2023-02-09T17:02:39.690Z,8.90
2023-02-09T17:05:28.149Z,11.40
2023-02-09T17:08:13.193Z,6.80
2023-02-09T17:10:47.584Z,20.40
2023-02-09T17:13:28.700Z,15.60
2023-02-09T17:16:03.131Z,8.90
2023-02-09T17:18:35.897Z,7.50
2023-02-09T17:21:09.517Z,4.70
2023-02-09T17:23:40.733Z,4.10
2023-02-09T17:26:12.183Z,5.90
2023-02-09T17:28:45.532Z,4.00
2023-02-09T17:31:19.014Z,5.30
2023-02-09T17:33:57.060Z,3.10
2023-02-09T17:36:29.391Z,4.70
2023-02-09T17:39:12.232Z,6.60
2023-02-09T17:41:51.783Z,5.00
2023-02-09T17:44:39.626Z,4.10
2023-02-09T17:47:17.082Z,4.70
2023-02-09T17:49:49.911Z,7.50
2023-02-09T17:52:21.225Z,7.50
2023-02-09T17:54:51.813Z,7.10
2023-02-09T17:57:22.858Z,3.90
2023-02-09T17:59:53.332Z,7.40
2023-02-09T18:02:23.693Z,6.10
2023-02-09T18:07:36.711Z,10.80
2023-02-09T18:10:14.333Z,12.30
2023-02-09T18:12:48.473Z,11.50
2023-02-09T18:15:25.844Z,9.50
2023-02-09T18:18:00.391Z,9.30
2023-02-09T18:20:35.338Z,14.60
2023-02-09T18:23:11.206Z,13.00
2023-02-09T18:25:47.657Z,14.40
2023-02-09T18:28:22.411Z,12.30
2023-02-09T18:30:58.050Z,16.70
2023-02-09T18:33:33.597Z,19.80
2023-02-09T18:38:43.306Z,13.20
2023-02-09T18:41:20.726Z,11.90
2023-02-09T18:43:56.235Z,12.40
2023-02-09T18:46:31.039Z,14.30
2023-02-09T18:49:06.912Z,13.10
2023-02-09T18:51:44.182Z,15.20
2023-02-09T18:54:20.989Z,15.30
2023-02-09T18:56:55.448Z,16.80
2023-02-09T18:59:42.814Z,12.40
2023-02-09T19:02:17.841Z,12.90
2023-02-09T19:04:53.697Z,14.20
2023-02-09T19:07:30.627Z,13.30
2023-02-09T19:10:07.359Z,12.30
2023-02-09T19:12:44.444Z,12.60
2023-02-09T19:15:23.293Z,13.60
2023-02-09T19:17:57.080Z,12.80
2023-02-09T19:20:32.955Z,13.70
2023-02-09T19:23:15.154Z,15.00
2023-02-09T19:25:50.112Z,14.90
2023-02-09T19:28:24.393Z,12.50
2023-02-09T19:30:58.276Z,15.90
2023-02-09T19:33:32.642Z,14.40
2023-02-09T19:36:06.957Z,16.00
2023-02-09T19:38:43.898Z,13.90
2023-02-09T19:41:20.986Z,13.00
2023-02-09T19:43:59.209Z,14.50
2023-02-09T19:46:33.978Z,15.60
2023-02-09T19:49:17.096Z,17.20
2023-02-09T19:51:54.810Z,13.80
2023-02-09T19:54:28.736Z,15.30
2023-02-09T19:57:07.666Z,14.60
2023-02-09T19:59:44.712Z,13.90
2023-02-09T20:02:22.076Z,15.10
2023-02-09T20:05:08.905Z,14.50
2023-02-09T20:10:18.102Z,16.30
2023-02-09T20:12:52.791Z,16.00
2023-02-09T20:15:32.198Z,15.30
2023-02-09T20:18:09.552Z,15.00
2023-02-09T20:20:46.691Z,13.90
2023-02-09T20:23:22.430Z,15.80
2023-02-09T20:25:57.840Z,14.80
2023-02-09T20:28:33.537Z,12.60
2023-02-09T20:31:09.750Z,12.10
2023-02-09T20:33:46.201Z,13.30
2023-02-09T20:36:22.763Z,12.80
2023-02-09T20:39:01.972Z,10.70
2023-02-09T20:41:39.546Z,12.30
2023-02-09T20:44:52.515Z,12.20
2023-02-09T20:47:55.684Z,14.00
2023-02-09T20:50:39.734Z,10.80
2023-02-09T20:53:16.016Z,12.50
2023-02-09T20:55:51.720Z,10.60
2023-02-09T20:58:26.456Z,11.50
2023-02-09T21:01:02.002Z,10.80
2023-02-09T21:03:38.404Z,10.60
2023-02-09T21:06:15.292Z,9.60
2023-02-09T21:08:49.215Z,11.80
2023-02-09T21:11:42.253Z,12.80
2023-02-09T21:14:28.003Z,12.30
2023-02-09T21:17:12.737Z,13.00
2023-02-09T21:19:50.134Z,10.80
2023-02-09T21:22:25.922Z,9.80
2023-02-09T21:25:04.066Z,10.90
2023-02-09T21:27:38.355Z,12.40
2023-02-09T21:30:16.309Z,12.50
2023-02-09T21:32:50.961Z,9.80
2023-02-09T21:35:25.408Z,10.20
2023-02-09T21:37:59.513Z,15.20
2023-02-09T21:40:33.425Z,11.20
2023-02-09T21:43:08.315Z,13.90
2023-02-09T21:45:43.984Z,15.70
2023-02-09T21:48:17.879Z,11.60
2023-02-09T21:50:59.045Z,10.90
2023-02-09T21:53:36.302Z,10.90
2023-02-09T21:56:14.034Z,12.10
2023-02-09T21:58:48.229Z,14.20
2023-02-09T22:01:33.892Z,12.00
2023-02-09T22:04:09.424Z,12.60
2023-02-09T22:06:44.637Z,12.90
2023-02-09T22:09:30.878Z,13.70
2023-02-09T22:12:13.799Z,14.50
2023-02-09T22:14:51.186Z,12.40
2023-02-09T22:17:26.725Z,15.00
2023-02-09T22:20:01.341Z,14.10
2023-02-09T22:22:35.640Z,13.60
2023-02-09T22:25:13.276Z,12.50
2023-02-09T22:27:47.152Z,42.40
2023-02-09T22:30:21.238Z,11.90
2023-02-09T22:32:55.244Z,15.40
2023-02-09T22:35:29.876Z,13.80
2023-02-09T22:38:04.453Z,13.10
2023-02-09T22:40:38.726Z,14.00
2023-02-09T22:43:12.485Z,22.70
2023-02-09T22:45:52.036Z,21.60
2023-02-09T22:48:27.973Z,20.30
2023-02-09T22:51:01.699Z,16.50
2023-02-09T22:53:35.811Z,15.60
2023-02-09T22:56:11.743Z,13.00
2023-02-09T22:58:46.195Z,13.30
2023-02-09T23:01:20.014Z,14.00
2023-02-09T23:03:54.472Z,13.80
2023-02-09T23:06:30.689Z,13.00
2023-02-09T23:09:06.016Z,14.10
2023-02-09T23:11:40.125Z,14.00
2023-02-09T23:14:15.216Z,15.10
2023-02-09T23:16:49.422Z,16.30
2023-02-09T23:19:24.442Z,13.30
2023-02-09T23:21:57.990Z,16.60
2023-02-09T23:24:31.849Z,14.30
2023-02-09T23:27:05.887Z,15.30
2023-02-09T23:29:40.844Z,15.70
2023-02-09T23:32:14.307Z,15.60
2023-02-09T23:34:49.228Z,13.30
2023-02-09T23:37:36.762Z,16.80
2023-02-09T23:40:13.718Z,15.90
2023-02-09T23:42:47.561Z,29.00
2023-02-09T23:45:21.155Z,15.00
2023-02-09T23:47:54.869Z,13.00
2023-02-09T23:50:28.645Z,17.60
2023-02-09T23:53:02.333Z,15.60
2023-02-09T23:55:36.669Z,17.30
2023-02-09T23:58:10.783Z,15.30
